Flight Track Log - Related Links

Times and Time Zones

All times are in EDT time to prevent confusion due to time zone crossing. See the N401PL flight status page for this flight to view local times or setup timezone preferences in your user account.

Time Position Orientation Groundspeed Altitude Reporting Facility
EDT Latitude Longitude Course Direction KTS MPH feet Rate Location/Type
Thu 03:04:50 PM 37.7958 -81.2975 279° West 159 183 4,900  Level Indianapolis Center
Thu 03:05:52 PM 37.8025 -81.3522 279° West 162 186 5,400 484 Climbing Indianapolis Center
Thu 03:06:54 PM 37.8089 -81.4069 278° West 163 188 5,900 532 Climbing Indianapolis Center
Thu 03:07:56 PM 37.8175 -81.4714 280° West 160 184 6,500 532 Climbing Indianapolis Center
Thu 03:08:58 PM 37.8236 -81.5264 278° West 157 181 7,000 435 Climbing Indianapolis Center
Thu 03:09:00 PM 37.8280 -81.4499 279° West  Level Estimated
Thu 03:10:00 PM 37.8311 -81.5814 280° West 159 183 7,400  Level Indianapolis Center
Thu 03:11:02 PM 37.8381 -81.6353 279° West 156 180 7,900 242 Climbing Indianapolis Center
Thu 03:12:04 PM 37.8453 -81.6908 279° West 160 184 7,900  Level Indianapolis Center
Thu 03:13:06 PM 37.8525 -81.7547 278° West 180 207 7,900 48 Level Indianapolis Center
Thu 03:14:08 PM 37.8622 -81.8319 279° West 184 212 8,000 48 Climbing Indianapolis Center
Thu 03:15:10 PM 37.8703 -81.8961 279° West 185 213 8,000  Level Indianapolis Center
Thu 03:16:12 PM 37.8769 -81.9589 278° West 181 208 8,000  Level Indianapolis Center
Thu 03:17:14 PM 37.8853 -82.0228 279° West 183 211 8,000  Level Indianapolis Center
Thu 03:18:16 PM 37.8925 -82.0861 278° West 183 211 8,000  Level Indianapolis Center
Thu 03:19:19 PM 37.9008 -82.1522 279° West 188 216 8,000 48 Level Indianapolis Center
Thu 03:20:21 PM 37.9081 -82.2228 277° West 184 212 8,100  Climbing Indianapolis Center
Thu 03:21:23 PM 37.9161 -82.2858 279° West 182 209 8,000 -48 Descending Indianapolis Center
Thu 03:22:25 PM 37.9236 -82.3497 278° West 183 211 8,000 48 Level Indianapolis Center
Thu 03:23:27 PM 37.9322 -82.4250 278° West 184 212 8,100 48 Climbing Indianapolis Center
Thu 03:24:29 PM 37.9383 -82.4878 277° West 182 209 8,100 -48 Level Indianapolis Center
Thu 03:25:31 PM 37.9461 -82.5522 279° West 184 212 8,000  Descending Indianapolis Center
Thu 03:26:33 PM 37.9539 -82.6153 279° West 182 209 8,100 48 Climbing Indianapolis Center
Thu 03:27:35 PM 37.9611 -82.6789 278° West 183 211 8,100  Level Indianapolis Center
Thu 03:28:37 PM 37.9692 -82.7550 278° West 185 213 8,100 -48 Level Indianapolis Center
Thu 03:29:39 PM 37.9769 -82.8192 279° West 185 213 8,000  Descending Indianapolis Center
Thu 03:30:41 PM 37.9833 -82.8819 277° West 182 209 8,100 48 Climbing Indianapolis Center
Thu 03:31:43 PM 37.9911 -82.9450 279° West 181 208 8,100 -48 Level Indianapolis Center
Thu 03:32:45 PM 37.9975 -83.0097 277° West 184 212 8,000  Descending Indianapolis Center
Thu 03:33:47 PM 37.9978 -83.0836 270° West 182 209 8,100 48 Climbing Indianapolis Center
Thu 03:34:49 PM 37.9928 -83.1492 264° West 184 212 8,100  Level Indianapolis Center
Thu 03:35:51 PM 37.9819 -83.2133 258° West 186 214 8,100  Level Indianapolis Center
Thu 03:36:53 PM 37.9794 -83.2789 267° West 186 214 8,100 -48 Level Indianapolis Center
Thu 03:37:56 PM 37.9803 -83.3436 271° West 185 213 8,000  Descending Indianapolis Center
Thu 03:38:58 PM 37.9800 -83.4197 270° West 185 213 8,100 48 Climbing Indianapolis Center
Thu 03:40:00 PM 37.9806 -83.4844 271° West 184 212 8,100  Level Indianapolis Center
Thu 03:41:02 PM 37.9794 -83.5494 269° West 184 212 8,100 -48 Level Indianapolis Center
Thu 03:42:04 PM 37.9794 -83.6167 270° West 188 216 8,000  Descending Indianapolis Center
Thu 03:43:06 PM 37.9789 -83.6819 269° West 188 216 8,100 48 Climbing Indianapolis Center
Thu 03:44:08 PM 37.9794 -83.7458 271° West 183 211 8,100 -48 Level Indianapolis Center
Thu 03:45:10 PM 37.9767 -83.8225 267° West 186 214 8,000 -97 Descending Indianapolis Center
Thu 03:46:12 PM 37.9719 -83.8878 265° West 187 215 7,900  Descending Indianapolis Center
Thu 03:47:14 PM 37.9683 -83.9533 266° West 187 215 8,000  Climbing Indianapolis Center
Thu 03:48:16 PM 37.9672 -84.0189 269° West 186 214 7,900  Descending Indianapolis Center
Thu 03:49:18 PM 37.9672 -84.0847 270° West 187 215 8,000  Climbing Indianapolis Center
Thu 03:50:20 PM 37.9653 -84.1619 268° West 188 216 7,900  Descending Indianapolis Center
Thu 03:51:22 PM 37.9653 -84.2258 270° West 183 211 8,000  Climbing Indianapolis Center
Thu 03:52:24 PM 37.9650 -84.2911 270° West 184 212 7,900 -48 Descending Indianapolis Center
Thu 03:53:27 PM 37.9586 -84.3556 263° West 185 213 7,900  Level Indianapolis Center
Thu 03:54:29 PM 37.9672 -84.4219 279° West 190 219 7,900 48 Level Indianapolis Center
Thu 03:55:31 PM 37.9775 -84.4981 280° West 189 217 8,000 48 Climbing Indianapolis Center
Thu 03:56:33 PM 37.9847 -84.5653 278° West 191 220 8,000 -48 Level Indianapolis Center
Thu 03:57:35 PM 37.9936 -84.6311 280° West 189 217 7,900  Descending Indianapolis Center
Thu 03:58:37 PM 38.0017 -84.6969 279° West 190 219 8,000 48 Climbing Indianapolis Center
Thu 03:59:39 PM 38.0103 -84.7633 279° West 190 219 8,000 -48 Level Indianapolis Center
Thu 04:00:41 PM 38.0189 -84.8286 280° West 189 217 7,900  Descending Indianapolis Center
Thu 04:01:43 PM 38.0275 -84.9069 278° West 190 219 8,000  Climbing Indianapolis Center
Thu 04:02:45 PM 38.0278 -84.9708 270° West 184 212 7,900  Descending Indianapolis Center
Thu 04:03:47 PM 38.0267 -85.0381 269° West 188 216 8,000 48 Climbing Indianapolis Center
Thu 04:04:49 PM 38.0364 -85.1031 281° West 188 216 8,000  Level Indianapolis Center
Thu 04:05:51 PM 38.0486 -85.1678 284° West 189 217 8,000  Level Indianapolis Center
Thu 04:06:53 PM 38.0561 -85.2397 278° West 186 214 8,000  Level Indianapolis Center
Thu 04:07:55 PM 38.0642 -85.3047 279° West 185 213 8,000  Level Indianapolis Center
Thu 04:08:57 PM 38.0733 -85.3697 280° West 186 214 8,000  Level Indianapolis Center
Thu 04:09:59 PM 38.0814 -85.4350 279° West 187 215 8,000 -48 Level Indianapolis Center
Thu 04:11:01 PM 38.0878 -85.5003 277° West 185 213 7,900  Descending Indianapolis Center
Thu 04:12:03 PM 38.1006 -85.5756 282° West 182 209 8,000  Climbing Indianapolis Center
Thu 04:13:06 PM 38.1081 -85.6400 278° West 183 211 7,900 -48 Descending Indianapolis Center
Thu 04:14:08 PM 38.1147 -85.7061 277° West 186 214 7,900 48 Level Indianapolis Center
Thu 04:15:10 PM 38.1233 -85.7706 280° West 187 215 8,000 48 Climbing Indianapolis Center
Thu 04:16:12 PM 38.1311 -85.8336 279° West 181 208 8,000  Level Indianapolis Center
Thu 04:17:14 PM 38.1394 -85.8992 279° West 186 214 8,000  Level Indianapolis Center
Thu 04:18:16 PM 38.1475 -85.9647 279° West 188 216 8,000  Level Indianapolis Center
Thu 04:19:18 PM 38.1564 -86.0433 278° West 187 215 8,000  Level Indianapolis Center
Thu 04:20:20 PM 38.1633 -86.1089 278° West 187 215 8,000  Level Indianapolis Center
Thu 04:21:22 PM 38.1722 -86.1769 279° West 192 221 8,000 -48 Level Indianapolis Center
Thu 04:22:24 PM 38.1800 -86.2422 279° West 188 216 7,900  Descending Indianapolis Center
Thu 04:23:26 PM 38.1878 -86.3103 278° West 192 221 8,000  Climbing Indianapolis Center
Thu 04:24:28 PM 38.1956 -86.3758 279° West 189 217 7,900  Descending Indianapolis Center
Thu 04:25:30 PM 38.2031 -86.4425 278° West 188 216 8,000  Climbing Indianapolis Center
Thu 04:26:32 PM 38.2119 -86.5231 278° West 191 220 7,900  Descending Indianapolis Center
Thu 04:27:34 PM 38.2200 -86.5886 279° West 188 216 8,000 48 Climbing Indianapolis Center
Thu 04:28:36 PM 38.2267 -86.6544 277° West 187 215 8,000  Level Indianapolis Center
Thu 04:29:38 PM 38.2344 -86.7206 279° West 188 216 8,000  Level Indianapolis Center
Thu 04:30:40 PM 38.2419 -86.7867 278° West 189 217 8,000  Level Indianapolis Center
Thu 04:31:43 PM 38.2489 -86.8542 277° West 190 219 8,000  Level Indianapolis Center
Thu 04:32:45 PM 38.2567 -86.9222 278° West 193 222 8,000  Level Indianapolis Center
Thu 04:33:47 PM 38.2658 -87.0042 278° West 193 222 8,000  Level Indianapolis Center
Thu 04:34:49 PM 38.2736 -87.0731 278° West 191 220 8,000  Level Indianapolis Center
Thu 04:35:51 PM 38.2814 -87.1425 278° West 191 220 8,000  Level Indianapolis Center
Thu 04:36:53 PM 38.2886 -87.2108 278° West 192 221 8,000  Level Indianapolis Center
Thu 04:37:55 PM 38.2961 -87.2792 278° West 193 222 8,000  Level Indianapolis Center
Thu 04:38:57 PM 38.3036 -87.3481 278° West 194 223 8,000  Level Indianapolis Center
Thu 04:39:59 PM 38.3106 -87.4161 277° West 194 223 8,000  Level Indianapolis Center
Thu 04:41:01 PM 38.3183 -87.4867 278° West 197 227 8,000  Level Indianapolis Center
Thu 04:42:03 PM 38.3258 -87.5572 278° West 200 230 8,000  Level Indianapolis Center
Thu 04:43:05 PM 38.3333 -87.6275 278° West 200 230 8,000  Level Indianapolis Center
Thu 04:44:07 PM 38.3419 -87.7122 277° West 201 231 8,000  Level Indianapolis Center
Thu 04:45:09 PM 38.3494 -87.7833 278° West 202 232 8,000  Level Indianapolis Center
Thu 04:46:11 PM 38.3572 -87.8536 278° West 200 230 8,000  Level Indianapolis Center
Thu 04:47:13 PM 38.3639 -87.9247 277° West 201 231 8,000  Level Indianapolis Center
Thu 04:48:16 PM 38.3717 -87.9944 278° West 200 230 8,000  Level Indianapolis Center
Thu 04:49:18 PM 38.3778 -88.0658 276° West 201 231 8,000  Level Indianapolis Center
Thu 04:50:20 PM 38.3856 -88.1364 278° West 201 231 8,000  Level Indianapolis Center
Thu 04:51:22 PM 38.3944 -88.2211 278° West 201 231 8,000  Level Indianapolis Center
Thu 04:52:24 PM 38.4014 -88.2914 277° West 200 230 8,000  Level Indianapolis Center
Thu 04:53:26 PM 38.4089 -88.3625 278° West 201 231 8,000  Level Indianapolis Center
Thu 04:54:28 PM 38.4161 -88.4336 277° West 201 231 8,000  Level Indianapolis Center
Thu 04:55:30 PM 38.4228 -88.5047 277° West 201 231 8,000  Level Indianapolis Center
Thu 04:56:32 PM 38.4300 -88.5758 277° West 201 231 8,000  Level Indianapolis Center
Thu 04:57:34 PM 38.4350 -88.6469 275° West 201 231 8,000  Level Indianapolis Center
Thu 04:58:36 PM 38.4436 -88.7328 277° West 202 232 8,000  Level Indianapolis Center
Thu 04:59:38 PM 38.4514 -88.8039 278° West 202 232 8,000  Level Indianapolis Center
Thu 05:00:40 PM 38.4581 -88.8761 277° West 203 234 8,000  Level Indianapolis Center
Thu 05:01:42 PM 38.4647 -88.9475 277° West 203 234 8,000  Level Indianapolis Center
Thu 05:02:44 PM 38.4714 -89.0183 277° West 202 232 8,000  Level Indianapolis Center
Thu 05:03:47 PM 38.4789 -89.0869 278° West 199 229 8,000  Level Indianapolis Center
Thu 05:04:49 PM 38.4867 -89.1706 277° West 198 228 8,000 -41 Level Indianapolis Center
Thu 05:06:12 PM 38.4936 -89.2681 275° West 195 224 7,900 -72 Descending Kansas City Center

Login

Don't have an account? Register now (free) for customized features, flight alerts, and more!